createdAt,value
2023-02-13T00:00:10.274Z,24.90
2023-02-13T00:02:57.718Z,23.13
2023-02-13T00:05:45.403Z,21.20
2023-02-13T00:08:32.770Z,22.63
2023-02-13T00:11:20.634Z,20.53
2023-02-13T00:14:08.120Z,21.67
2023-02-13T00:16:55.477Z,18.93
2023-02-13T00:19:42.912Z,23.00
2023-02-13T00:22:30.274Z,19.80
2023-02-13T00:25:17.690Z,23.30
2023-02-13T00:28:05.112Z,23.50
2023-02-13T00:30:52.644Z,23.67
2023-02-13T00:33:40.181Z,21.73
2023-02-13T00:36:27.544Z,20.13
2023-02-13T00:39:15.024Z,22.60
2023-02-13T00:42:02.347Z,24.97
2023-02-13T00:44:49.769Z,21.53
2023-02-13T00:47:37.194Z,20.80
2023-02-13T00:50:24.596Z,21.80
2023-02-13T00:53:12.041Z,26.23
2023-02-13T00:55:59.446Z,29.30
2023-02-13T00:58:46.888Z,24.10
2023-02-13T01:01:34.370Z,21.30
2023-02-13T01:04:21.788Z,24.33
2023-02-13T01:07:09.186Z,24.57
2023-02-13T01:09:56.577Z,20.70
2023-02-13T01:12:43.943Z,21.93
2023-02-13T01:15:32.396Z,22.40
2023-02-13T01:18:20.706Z,24.87
2023-02-13T01:21:08.810Z,27.33
2023-02-13T01:23:56.204Z,23.50
2023-02-13T01:26:44.017Z,22.93
2023-02-13T01:29:31.376Z,24.90
2023-02-13T01:32:18.816Z,28.13
2023-02-13T01:35:06.719Z,26.07
2023-02-13T01:37:54.068Z,26.87
2023-02-13T01:40:59.751Z,27.50
2023-02-13T01:43:54.953Z,25.80
2023-02-13T01:46:43.774Z,27.70
2023-02-13T01:49:31.291Z,29.10
2023-02-13T01:52:18.943Z,30.20
2023-02-13T01:55:07.049Z,28.87
2023-02-13T01:57:57.676Z,27.50
2023-02-13T02:00:49.655Z,27.47
2023-02-13T02:03:46.807Z,27.17
2023-02-13T02:06:36.313Z,28.23
2023-02-13T02:09:24.924Z,26.83
2023-02-13T02:12:12.267Z,27.63
2023-02-13T02:15:00.912Z,27.90
2023-02-13T02:17:48.383Z,30.73
2023-02-13T02:20:45.862Z,29.47
2023-02-13T02:23:45.580Z,28.80
2023-02-13T02:26:38.827Z,24.20
2023-02-13T02:29:43.244Z,27.20
2023-02-13T02:32:49.080Z,33.27
2023-02-13T02:35:45.196Z,27.77
2023-02-13T02:38:46.060Z,27.23
2023-02-13T02:41:42.603Z,33.83
2023-02-13T02:44:39.307Z,32.67
2023-02-13T02:47:49.277Z,28.83
2023-02-13T02:50:43.872Z,32.80
2023-02-13T02:53:31.296Z,28.67
2023-02-13T02:56:29.446Z,27.63
2023-02-13T02:59:37.511Z,30.83
2023-02-13T03:02:44.532Z,28.30
2023-02-13T03:05:53.939Z,34.23
2023-02-13T03:09:01.693Z,32.13
2023-02-13T03:12:10.235Z,33.57
2023-02-13T03:14:57.780Z,34.50
2023-02-13T03:18:03.994Z,32.37
2023-02-13T03:21:21.542Z,35.27
2023-02-13T03:24:14.396Z,28.90
2023-02-13T03:27:40.494Z,32.17
2023-02-13T03:30:46.436Z,29.77
2023-02-13T03:33:39.895Z,28.00
2023-02-13T03:37:04.564Z,30.90
2023-02-13T03:39:59.294Z,29.53
2023-02-13T03:42:49.455Z,28.83
2023-02-13T03:45:53.950Z,26.43
2023-02-13T03:49:01.135Z,31.00
2023-02-13T03:51:57.289Z,28.63
2023-02-13T03:55:14.664Z,27.13
2023-02-13T03:58:46.637Z,29.00
2023-02-13T04:01:35.556Z,30.80
2023-02-13T04:04:23.144Z,28.63
2023-02-13T04:07:12.622Z,27.00
2023-02-13T04:10:02.582Z,27.87
2023-02-13T04:13:08.312Z,29.80
2023-02-13T04:16:12.467Z,27.87
2023-02-13T04:19:01.807Z,30.23
2023-02-13T04:21:50.664Z,29.23
2023-02-13T04:24:38.084Z,28.33
2023-02-13T04:27:29.044Z,28.37
2023-02-13T04:30:16.461Z,25.77
2023-02-13T04:33:03.860Z,24.97
2023-02-13T04:35:51.300Z,21.47
2023-02-13T04:38:38.688Z,26.50
2023-02-13T04:41:26.057Z,27.53
2023-02-13T04:44:13.435Z,25.57
2023-02-13T04:47:00.772Z,27.60
2023-02-13T04:49:48.109Z,23.30
2023-02-13T04:52:35.501Z,22.33
2023-02-13T04:55:23.847Z,28.10
2023-02-13T04:58:11.220Z,25.77
2023-02-13T05:00:59.169Z,20.50
2023-02-13T05:03:46.855Z,21.10
2023-02-13T05:06:34.236Z,20.70
2023-02-13T05:09:21.782Z,22.70
2023-02-13T05:12:09.128Z,17.33
2023-02-13T05:14:56.735Z,18.10
2023-02-13T05:17:44.493Z,20.13
2023-02-13T05:20:31.857Z,17.10
2023-02-13T05:23:25.437Z,17.03
2023-02-13T05:26:12.802Z,19.97
2023-02-13T05:29:18.612Z,19.27
2023-02-13T05:32:06.192Z,19.03
2023-02-13T05:34:53.626Z,14.47
2023-02-13T05:37:40.998Z,17.77
2023-02-13T05:40:28.390Z,16.10
2023-02-13T05:43:15.819Z,16.03
2023-02-13T05:46:04.263Z,16.87
2023-02-13T05:48:52.329Z,15.53
2023-02-13T05:51:39.747Z,17.13
2023-02-13T05:54:27.163Z,17.53
2023-02-13T05:57:14.512Z,17.17
2023-02-13T06:00:02.069Z,16.23
2023-02-13T06:02:49.501Z,15.20
2023-02-13T06:05:36.917Z,14.40
2023-02-13T06:08:24.376Z,16.30
2023-02-13T06:11:11.763Z,15.10
2023-02-13T06:13:59.324Z,15.70
2023-02-13T06:16:46.685Z,13.87
2023-02-13T06:19:34.103Z,15.13
2023-02-13T06:22:21.447Z,19.43
2023-02-13T06:25:08.802Z,13.40
2023-02-13T06:27:56.201Z,14.57
2023-02-13T06:30:43.638Z,16.50
2023-02-13T06:33:31.039Z,16.23
2023-02-13T06:36:18.405Z,15.50
2023-02-13T06:39:05.770Z,20.33
2023-02-13T06:41:53.195Z,19.47
2023-02-13T06:44:40.815Z,19.13
2023-02-13T06:47:28.306Z,18.53
2023-02-13T06:50:16.702Z,17.47
2023-02-13T06:53:04.136Z,15.60
2023-02-13T06:55:55.078Z,17.13
2023-02-13T06:58:42.501Z,17.00
2023-02-13T07:01:29.883Z,19.50
2023-02-13T07:04:17.253Z,18.30
2023-02-13T07:07:04.596Z,18.80
2023-02-13T07:09:51.995Z,19.27
2023-02-13T07:12:39.401Z,19.97
2023-02-13T07:15:26.768Z,19.17
2023-02-13T07:18:14.128Z,17.30
2023-02-13T07:21:01.791Z,18.33
2023-02-13T07:23:49.150Z,18.30
2023-02-13T07:26:36.637Z,20.10
2023-02-13T07:29:23.968Z,18.33
2023-02-13T07:32:12.021Z,21.30
2023-02-13T07:35:02.467Z,18.40
2023-02-13T07:37:50.214Z,17.77
2023-02-13T07:40:37.564Z,21.77
2023-02-13T07:43:25.106Z,21.03
2023-02-13T07:46:12.555Z,20.40
2023-02-13T07:49:00.060Z,16.33
2023-02-13T07:51:50.034Z,18.57
2023-02-13T07:54:37.622Z,21.67
2023-02-13T07:57:25.043Z,23.47
2023-02-13T08:00:12.678Z,20.70
2023-02-13T08:03:00.744Z,23.47
2023-02-13T08:05:49.412Z,22.93
2023-02-13T08:08:39.679Z,22.70
2023-02-13T08:11:52.043Z,22.17
2023-02-13T08:14:39.412Z,23.23
2023-02-13T08:17:26.854Z,21.53
2023-02-13T08:20:14.307Z,23.67
2023-02-13T08:23:09.128Z,26.30
2023-02-13T08:25:59.831Z,23.53
2023-02-13T08:28:47.413Z,24.60
2023-02-13T08:31:35.111Z,24.20
2023-02-13T08:34:22.601Z,24.53
2023-02-13T08:37:09.992Z,22.77
2023-02-13T08:39:57.479Z,26.03
2023-02-13T08:42:44.900Z,21.17
2023-02-13T08:45:33.040Z,21.70
2023-02-13T08:48:22.616Z,22.90
2023-02-13T08:51:14.261Z,24.23
2023-02-13T08:54:01.642Z,22.53
2023-02-13T08:56:49.090Z,26.90
2023-02-13T08:59:36.492Z,23.27
2023-02-13T09:02:23.900Z,21.87
2023-02-13T09:05:11.311Z,21.13
2023-02-13T09:08:05.420Z,23.40
2023-02-13T09:10:56.915Z,20.80
2023-02-13T09:13:44.300Z,22.37
2023-02-13T09:16:32.399Z,23.40
2023-02-13T09:19:19.829Z,21.30
2023-02-13T09:22:07.226Z,20.87
2023-02-13T09:24:54.588Z,19.77
2023-02-13T09:27:44.424Z,21.63
2023-02-13T09:30:32.053Z,19.33
2023-02-13T09:33:19.456Z,23.30
2023-02-13T09:36:06.879Z,18.63
2023-02-13T09:38:55.537Z,21.07
2023-02-13T09:41:44.101Z,19.63
2023-02-13T09:44:43.138Z,20.20
2023-02-13T09:47:33.589Z,22.57
2023-02-13T09:50:30.302Z,22.03
2023-02-13T09:53:24.525Z,21.83
2023-02-13T09:56:16.852Z,19.23
2023-02-13T09:59:10.872Z,20.50
2023-02-13T10:01:59.867Z,19.30
2023-02-13T10:04:51.136Z,22.90
2023-02-13T10:07:44.845Z,20.43
2023-02-13T10:10:32.258Z,20.07
2023-02-13T10:13:38.531Z,19.97
2023-02-13T10:16:44.386Z,22.83
2023-02-13T10:19:38.773Z,20.13
2023-02-13T10:22:49.688Z,19.77
2023-02-13T10:25:47.093Z,18.80
2023-02-13T10:29:15.293Z,22.57
2023-02-13T10:32:05.728Z,22.20
2023-02-13T10:34:54.349Z,21.00
2023-02-13T10:37:41.782Z,18.77
2023-02-13T10:40:33.402Z,21.30
2023-02-13T10:43:21.463Z,19.70
2023-02-13T10:46:41.475Z,17.47
2023-02-13T10:49:47.533Z,20.17
2023-02-13T10:52:53.786Z,18.37
2023-02-13T10:55:53.130Z,18.13
2023-02-13T10:58:41.175Z,19.10
2023-02-13T11:01:36.524Z,18.73
2023-02-13T11:04:24.188Z,18.03
2023-02-13T11:07:16.872Z,19.73
2023-02-13T11:10:06.797Z,19.00
2023-02-13T11:12:54.558Z,20.33
2023-02-13T11:15:41.943Z,23.10
2023-02-13T11:18:30.529Z,20.20
2023-02-13T11:21:21.336Z,21.60
2023-02-13T11:24:17.867Z,21.20
2023-02-13T11:27:13.397Z,19.67
2023-02-13T11:30:02.345Z,18.77
2023-02-13T11:33:03.832Z,19.83
2023-02-13T11:36:04.210Z,22.57
2023-02-13T11:38:58.516Z,20.33
2023-02-13T11:41:55.676Z,20.40
2023-02-13T11:44:43.922Z,20.70
2023-02-13T11:47:33.319Z,19.37
2023-02-13T11:50:23.676Z,21.50
2023-02-13T11:53:20.513Z,20.43
2023-02-13T11:56:12.449Z,22.17
2023-02-13T11:59:03.843Z,21.33
2023-02-13T12:02:03.651Z,20.10
2023-02-13T12:04:52.431Z,18.33
2023-02-13T12:07:40.228Z,20.20
2023-02-13T12:10:34.027Z,20.43
2023-02-13T12:13:30.768Z,19.93
2023-02-13T12:16:39.415Z,21.37
2023-02-13T12:19:39.993Z,18.57
2023-02-13T12:22:30.629Z,21.63
2023-02-13T12:25:26.925Z,19.53
2023-02-13T12:28:16.247Z,24.17
2023-02-13T12:31:09.795Z,23.93
2023-02-13T12:34:23.841Z,21.73
2023-02-13T12:37:43.688Z,22.50
2023-02-13T12:40:31.139Z,19.90
2023-02-13T12:43:18.569Z,22.13
2023-02-13T12:46:17.663Z,23.30
2023-02-13T12:49:09.194Z,17.60
2023-02-13T12:52:15.333Z,21.50
2023-02-13T12:55:21.428Z,22.17
2023-02-13T12:58:14.473Z,25.60
2023-02-13T13:01:17.950Z,22.67
2023-02-13T13:04:05.573Z,22.47
2023-02-13T13:07:01.646Z,22.60
2023-02-13T13:10:12.544Z,21.67
2023-02-13T13:13:05.667Z,21.87
2023-02-13T13:15:54.812Z,23.73
2023-02-13T13:19:00.530Z,23.60
2023-02-13T13:21:50.271Z,27.13
2023-02-13T13:24:45.962Z,24.50
2023-02-13T13:27:36.958Z,24.13
2023-02-13T13:30:42.646Z,28.73
2023-02-13T13:33:30.161Z,25.70
2023-02-13T13:36:24.946Z,25.40
2023-02-13T13:39:32.571Z,25.17
2023-02-13T13:42:29.162Z,23.13
2023-02-13T13:45:19.324Z,22.83
2023-02-13T13:48:06.692Z,28.87
2023-02-13T13:50:54.509Z,24.43
2023-02-13T13:54:17.387Z,25.87
2023-02-13T13:57:05.655Z,30.80
2023-02-13T13:59:57.588Z,26.23
2023-02-13T14:02:46.698Z,30.83
2023-02-13T14:05:35.326Z,30.07
2023-02-13T14:08:37.856Z,29.73
2023-02-13T14:11:35.676Z,25.33
2023-02-13T14:18:15.626Z,29.63
2023-02-13T14:21:51.237Z,31.67
2023-02-13T14:24:39.844Z,30.70
2023-02-13T14:27:38.324Z,29.47
2023-02-13T14:30:28.551Z,32.97
2023-02-13T14:33:24.925Z,31.10
2023-02-13T14:36:21.666Z,34.90
2023-02-13T14:39:22.858Z,34.43
2023-02-13T14:42:30.482Z,31.57
2023-02-13T14:45:23.257Z,32.63
2023-02-13T14:48:14.194Z,31.23
2023-02-13T14:51:02.361Z,33.13
2023-02-13T14:53:54.762Z,36.57
2023-02-13T14:56:42.220Z,31.17
2023-02-13T14:59:32.686Z,34.67
2023-02-13T15:02:24.394Z,34.27
2023-02-13T15:05:16.010Z,35.27
2023-02-13T15:08:03.339Z,31.07
2023-02-13T15:10:52.882Z,32.40
2023-02-13T15:13:40.955Z,33.37
2023-02-13T15:16:28.369Z,34.13
2023-02-13T15:19:17.038Z,31.47
2023-02-13T15:22:05.547Z,36.97
2023-02-13T15:24:53.042Z,37.23
2023-02-13T15:27:44.400Z,32.03
2023-02-13T15:30:36.311Z,32.87
2023-02-13T15:33:24.845Z,33.23
2023-02-13T15:36:16.773Z,36.47
2023-02-13T15:39:09.484Z,31.73
2023-02-13T15:41:59.158Z,37.83
2023-02-13T15:44:48.559Z,38.27
2023-02-13T15:47:36.443Z,40.63
2023-02-13T15:50:35.831Z,38.33
2023-02-13T15:53:23.234Z,35.90
2023-02-13T15:56:14.645Z,33.80
2023-02-13T15:59:02.357Z,40.57
2023-02-13T16:01:51.562Z,35.60
2023-02-13T16:04:40.840Z,32.03
2023-02-13T16:07:28.217Z,31.03
2023-02-13T16:10:18.407Z,33.50
2023-02-13T16:13:07.069Z,32.20
2023-02-13T16:15:54.544Z,49.50
2023-02-13T16:18:41.964Z,35.37
2023-02-13T16:21:31.327Z,33.73
2023-02-13T16:24:19.856Z,31.60
2023-02-13T16:27:13.676Z,34.70
2023-02-13T16:30:02.206Z,32.30
2023-02-13T16:32:49.656Z,33.07
2023-02-13T16:35:42.065Z,34.27
2023-02-13T16:38:38.822Z,32.53
2023-02-13T16:41:26.200Z,32.43
2023-02-13T16:44:24.060Z,32.03
2023-02-13T16:47:20.417Z,33.50
2023-02-13T16:50:14.471Z,33.63
2023-02-13T16:53:05.081Z,30.00
2023-02-13T16:56:00.581Z,31.83
2023-02-13T16:58:48.002Z,38.33
2023-02-13T17:01:38.129Z,31.73
2023-02-13T17:04:25.916Z,30.80
2023-02-13T17:07:33.620Z,32.17
2023-02-13T17:10:21.166Z,28.73
2023-02-13T17:13:11.476Z,32.93
2023-02-13T17:16:00.006Z,31.13
2023-02-13T17:18:47.397Z,31.77
2023-02-13T17:21:35.029Z,34.57
2023-02-13T17:24:22.396Z,31.77
2023-02-13T17:27:10.535Z,31.13
2023-02-13T17:29:58.021Z,29.30
2023-02-13T17:32:47.004Z,31.80
2023-02-13T17:35:35.111Z,28.33
2023-02-13T17:38:22.558Z,29.27
2023-02-13T17:41:15.020Z,29.17
2023-02-13T17:44:02.371Z,28.57
2023-02-13T17:46:49.728Z,28.63
2023-02-13T17:49:37.083Z,27.37
2023-02-13T17:52:29.206Z,24.83
2023-02-13T17:55:21.273Z,26.17
2023-02-13T17:58:08.729Z,30.27
2023-02-13T18:00:56.380Z,24.50
2023-02-13T18:03:43.846Z,26.73
2023-02-13T18:06:31.286Z,24.83
2023-02-13T18:09:18.710Z,24.17
2023-02-13T18:12:07.253Z,23.60
2023-02-13T18:14:54.651Z,26.17
2023-02-13T18:17:42.150Z,23.17
2023-02-13T18:20:29.848Z,25.27
2023-02-13T18:23:17.473Z,26.23
2023-02-13T18:26:09.346Z,23.57
2023-02-13T18:28:56.720Z,28.40
2023-02-13T18:31:44.237Z,29.17
2023-02-13T18:34:32.155Z,31.40
2023-02-13T18:37:19.595Z,27.20
2023-02-13T18:40:10.482Z,25.67
2023-02-13T18:42:57.935Z,25.73
2023-02-13T18:45:45.876Z,24.97
2023-02-13T18:48:33.271Z,26.60
2023-02-13T18:51:20.633Z,27.87
2023-02-13T18:54:08.017Z,28.40
2023-02-13T18:56:55.428Z,25.50
2023-02-13T18:59:42.781Z,28.43
2023-02-13T19:02:32.231Z,28.40
2023-02-13T19:05:19.844Z,29.87
2023-02-13T19:08:07.180Z,34.67
2023-02-13T19:10:59.385Z,27.50
2023-02-13T19:13:47.345Z,28.77
2023-02-13T19:16:35.514Z,30.00
2023-02-13T19:19:22.933Z,32.37
2023-02-13T19:22:10.295Z,29.13
2023-02-13T19:24:57.628Z,29.30
2023-02-13T19:27:44.968Z,31.33
2023-02-13T19:30:32.466Z,29.43
2023-02-13T19:33:20.101Z,29.23
2023-02-13T19:36:09.517Z,28.63
2023-02-13T19:38:57.927Z,28.23
2023-02-13T19:41:45.273Z,27.10
2023-02-13T19:44:32.627Z,27.77
2023-02-13T19:47:19.998Z,28.50
2023-02-13T19:50:07.758Z,27.90
2023-02-13T19:52:55.135Z,26.83
2023-02-13T19:55:42.463Z,25.37
2023-02-13T19:58:29.853Z,23.80
2023-02-13T20:01:18.848Z,24.30
2023-02-13T20:04:06.222Z,27.37
2023-02-13T20:06:58.140Z,26.37
2023-02-13T20:09:45.619Z,24.10
2023-02-13T20:12:32.982Z,24.10
2023-02-13T20:15:20.953Z,29.80
2023-02-13T20:18:08.358Z,25.53
2023-02-13T20:20:55.698Z,25.87
2023-02-13T20:23:43.666Z,22.03
2023-02-13T20:26:31.481Z,23.23
2023-02-13T20:29:18.935Z,22.10
2023-02-13T20:32:06.464Z,24.53
2023-02-13T20:34:59.927Z,23.03
2023-02-13T20:37:47.536Z,22.80
2023-02-13T20:40:34.907Z,23.30
2023-02-13T20:43:22.232Z,22.13
2023-02-13T20:46:10.176Z,23.33
2023-02-13T20:48:57.713Z,22.40
2023-02-13T20:51:45.537Z,23.17
2023-02-13T20:54:33.163Z,21.70
2023-02-13T20:57:20.661Z,21.53
2023-02-13T21:00:09.430Z,20.90
2023-02-13T21:02:56.860Z,21.97
2023-02-13T21:05:44.281Z,21.07
2023-02-13T21:08:31.638Z,20.90
2023-02-13T21:11:19.673Z,23.57
2023-02-13T21:14:07.072Z,26.90
2023-02-13T21:16:54.552Z,19.57
2023-02-13T21:19:41.988Z,22.40
2023-02-13T21:22:30.418Z,21.67
2023-02-13T21:25:18.676Z,22.07
2023-02-13T21:28:06.101Z,22.00
2023-02-13T21:30:53.547Z,22.87
2023-02-13T21:33:40.979Z,22.60
2023-02-13T21:36:28.428Z,25.10
2023-02-13T21:39:16.093Z,25.70
2023-02-13T21:42:04.440Z,27.63
2023-02-13T21:44:51.821Z,25.33
2023-02-13T21:47:39.172Z,22.00
2023-02-13T21:50:26.569Z,25.00
2023-02-13T21:53:13.952Z,22.00
2023-02-13T21:56:04.946Z,25.17
2023-02-13T21:58:52.783Z,22.33
2023-02-13T22:01:40.214Z,25.20
2023-02-13T22:04:27.567Z,23.00
2023-02-13T22:07:14.931Z,24.40
2023-02-13T22:10:02.305Z,22.90
2023-02-13T22:12:53.435Z,21.63
2023-02-13T22:15:40.778Z,23.23
2023-02-13T22:18:30.668Z,23.33
2023-02-13T22:21:18.940Z,21.97
2023-02-13T22:24:06.618Z,22.93
2023-02-13T22:26:53.965Z,24.57
2023-02-13T22:29:41.364Z,25.23
2023-02-13T22:32:28.770Z,23.13
2023-02-13T22:35:16.160Z,21.53
2023-02-13T22:38:03.596Z,23.27
2023-02-13T22:40:50.994Z,22.20
2023-02-13T22:43:38.861Z,21.73
2023-02-13T22:46:28.210Z,18.90
2023-02-13T22:49:15.627Z,22.33
2023-02-13T22:52:02.980Z,24.97
2023-02-13T22:54:50.388Z,19.40
2023-02-13T22:57:37.837Z,23.67
2023-02-13T23:00:25.160Z,24.07
2023-02-13T23:03:12.591Z,23.10
2023-02-13T23:05:59.932Z,19.13
2023-02-13T23:08:52.143Z,24.77
2023-02-13T23:11:58.329Z,23.73
2023-02-13T23:14:45.722Z,19.17
2023-02-13T23:17:51.812Z,20.70
2023-02-13T23:20:40.156Z,21.67
2023-02-13T23:23:27.670Z,21.70
2023-02-13T23:26:15.467Z,24.67
2023-02-13T23:29:02.861Z,21.27
2023-02-13T23:31:50.277Z,22.53
2023-02-13T23:34:37.942Z,19.70
2023-02-13T23:37:25.319Z,22.17
2023-02-13T23:40:13.565Z,19.63
2023-02-13T23:43:00.946Z,16.97
2023-02-13T23:45:48.593Z,17.80
2023-02-13T23:48:35.965Z,18.10
2023-02-13T23:51:25.476Z,21.17
2023-02-13T23:54:20.192Z,19.87
2023-02-13T23:57:07.581Z,20.53
2023-02-13T23:59:55.002Z,20.30
